Time;durP1;ratioP1;P1;durP2;ratioP2;P2;SDS_P1;SDS_P2;PMS_P1;PMS_P2;Temp;Humidity;BMP_temperature;BMP_pressure;BME280_temperature;BME280_humidity;BME280_pressure;Samples;Min_cycle;Max_cycle;Signal;HPM_P1;HPM_P2
2022/03/05 00:00:16;;;;;;;5.03;1.85;;;;;;;;;;5022634;28;20052;-71
2022/03/05 00:02:42;;;;;;;4.85;1.73;;;;;;;;;;5024049;28;20549;-71
2022/03/05 00:05:08;;;;;;;4.75;2.00;;;;;;;;;;5027155;28;20048;-71
2022/03/05 00:07:34;;;;;;;4.32;1.90;;;;;;;;;;5025613;28;20053;-71
2022/03/05 00:10:00;;;;;;;4.00;1.77;;;;;;;;;;5024406;28;20735;-71
2022/03/05 00:12:26;;;;;;;4.68;1.92;;;;;;;;;;5026294;28;20052;-71
2022/03/05 00:14:52;;;;;;;4.70;2.00;;;;;;;;;;5026949;28;20581;-71
2022/03/05 00:17:18;;;;;;;4.35;1.80;;;;;;;;;;5025915;28;20555;-71
2022/03/05 00:19:44;;;;;;;4.35;1.75;;;;;;;;;;5021945;28;20139;-71
2022/03/05 00:22:10;;;;;;;4.75;2.35;;;;;;;;;;5025551;28;20796;-71
2022/03/05 00:24:36;;;;;;;4.35;1.90;;;;;;;;;;5025595;28;20056;-71
2022/03/05 00:27:04;;;;;;;4.40;2.00;;;;;;;;;;5025781;28;20052;-71
2022/03/05 00:29:30;;;;;;;4.13;1.80;;;;;;;;;;5023777;28;20056;-71
2022/03/05 00:31:56;;;;;;;4.47;1.80;;;;;;;;;;5009919;28;20131;-71
2022/03/05 00:34:22;;;;;;;4.88;1.90;;;;;;;;;;5023878;28;20077;-71
2022/03/05 00:36:48;;;;;;;5.07;1.88;;;;;;;;;;5022474;28;20136;-71
2022/03/05 00:39:14;;;;;;;4.55;1.88;;;;;;;;;;5021214;28;20057;-71
2022/03/05 00:41:40;;;;;;;4.22;1.88;;;;;;;;;;5027377;28;20149;-72
2022/03/05 00:44:06;;;;;;;5.10;2.13;;;;;;;;;;5023507;28;20055;-71
2022/03/05 00:46:32;;;;;;;4.80;2.00;;;;;;;;;;5023259;28;20064;-71
2022/03/05 00:48:57;;;;;;;7.03;2.00;;;;;;;;;;5020056;28;20779;-70
2022/03/05 00:51:24;;;;;;;5.95;2.50;;;;;;;;;;5024407;28;20049;-71
2022/03/05 00:53:50;;;;;;;7.18;2.10;;;;;;;;;;5024333;28;20051;-71
2022/03/05 00:56:16;;;;;;;5.68;2.00;;;;;;;;;;5024883;28;20041;-71
2022/03/05 00:58:42;;;;;;;4.80;2.08;;;;;;;;;;5019746;28;20147;-71
2022/03/05 01:01:08;;;;;;;6.03;2.22;;;;;;;;;;5023917;28;20852;-71
2022/03/05 01:03:34;;;;;;;8.77;2.50;;;;;;;;;;5017251;28;21823;-71
2022/03/05 01:06:00;;;;;;;5.38;2.13;;;;;;;;;;5016849;28;20037;-71
2022/03/05 01:08:26;;;;;;;4.80;2.15;;;;;;;;;;5039338;28;20041;-71
2022/03/05 01:10:52;;;;;;;4.75;2.10;;;;;;;;;;5043426;28;20056;-71
2022/03/05 01:13:18;;;;;;;4.40;2.17;;;;;;;;;;5041842;28;20036;-71
2022/03/05 01:15:44;;;;;;;6.03;2.22;;;;;;;;;;5043690;28;20792;-71
2022/03/05 01:18:10;;;;;;;4.90;2.00;;;;;;;;;;5025860;28;20049;-71
2022/03/05 01:20:36;;;;;;;5.25;2.20;;;;;;;;;;5026326;28;20037;-71
2022/03/05 01:23:02;;;;;;;4.97;2.15;;;;;;;;;;5040154;28;20049;-71
2022/03/05 01:25:28;;;;;;;6.25;2.30;;;;;;;;;;5042261;28;20640;-71
2022/03/05 01:27:54;;;;;;;5.68;2.40;;;;;;;;;;5042057;28;20040;-71
2022/03/05 01:30:21;;;;;;;6.20;2.40;;;;;;;;;;5043278;28;20083;-71
2022/03/05 01:32:47;;;;;;;4.13;1.77;;;;;;;;;;5040764;28;20098;-71
2022/03/05 01:35:12;;;;;;;5.25;2.05;;;;;;;;;;5043213;28;20036;-71
2022/03/05 01:37:38;;;;;;;5.00;2.10;;;;;;;;;;5040835;28;20517;-71
2022/03/05 01:40:05;;;;;;;4.75;2.35;;;;;;;;;;5042774;28;20045;-71
2022/03/05 01:42:31;;;;;;;5.57;2.38;;;;;;;;;;5041307;28;20107;-71
2022/03/05 01:44:57;;;;;;;5.05;2.30;;;;;;;;;;5042469;28;20833;-71
2022/03/05 01:47:23;;;;;;;4.93;2.13;;;;;;;;;;5025215;28;20057;-71
2022/03/05 01:49:49;;;;;;;5.47;2.30;;;;;;;;;;5042461;28;20048;-71
2022/03/05 01:52:15;;;;;;;4.90;2.15;;;;;;;;;;5041408;28;20036;-71
2022/03/05 01:54:41;;;;;;;4.97;1.92;;;;;;;;;;5042113;28;20048;-71
2022/03/05 01:57:08;;;;;;;5.68;2.47;;;;;;;;;;5041595;28;20040;-70
2022/03/05 01:59:34;;;;;;;5.38;2.33;;;;;;;;;;5042420;28;20049;-71
2022/03/05 02:02:00;;;;;;;4.97;2.30;;;;;;;;;;5044126;28;20045;-71
2022/03/05 02:04:26;;;;;;;5.93;2.90;;;;;;;;;;5041839;28;20037;-71
2022/03/05 02:06:53;;;;;;;4.70;2.33;;;;;;;;;;5042707;28;20388;-71
2022/03/05 02:09:19;;;;;;;5.78;2.60;;;;;;;;;;5041098;28;20064;-71
2022/03/05 02:11:45;;;;;;;5.07;2.40;;;;;;;;;;5026034;28;20111;-71
2022/03/05 02:14:11;;;;;;;4.97;2.33;;;;;;;;;;5041034;28;20579;-71
2022/03/05 02:16:37;;;;;;;5.45;2.00;;;;;;;;;;5042200;28;20040;-71
2022/03/05 02:19:05;;;;;;;4.90;2.22;;;;;;;;;;5041164;28;20490;-71
2022/03/05 02:21:31;;;;;;;4.85;2.45;;;;;;;;;;5026183;28;20110;-71
2022/03/05 02:23:57;;;;;;;5.07;2.50;;;;;;;;;;5040493;28;20041;-71
2022/03/05 02:26:23;;;;;;;4.70;2.35;;;;;;;;;;5042582;28;20433;-71
2022/03/05 02:28:49;;;;;;;5.85;2.50;;;;;;;;;;5040435;28;20041;-71
2022/03/05 02:31:15;;;;;;;5.10;2.20;;;;;;;;;;5025642;28;20045;-71
2022/03/05 02:33:43;;;;;;;5.60;2.50;;;;;;;;;;5040643;28;20049;-71
2022/03/05 02:36:09;;;;;;;5.60;2.30;;;;;;;;;;5042587;28;20041;-71
2022/03/05 02:38:35;;;;;;;5.80;2.72;;;;;;;;;;5040656;28;20056;-71
2022/03/05 02:41:01;;;;;;;5.13;2.10;;;;;;;;;;5043280;28;20068;-71
2022/03/05 02:43:27;;;;;;;5.30;2.40;;;;;;;;;;5041634;28;20601;-71
2022/03/05 02:45:53;;;;;;;6.00;2.50;;;;;;;;;;5041058;28;20088;-71
2022/03/05 02:48:19;;;;;;;5.22;2.50;;;;;;;;;;5039248;28;20675;-71
2022/03/05 02:50:46;;;;;;;5.88;2.33;;;;;;;;;;5042724;28;20045;-71
2022/03/05 02:53:12;;;;;;;5.30;2.55;;;;;;;;;;5040619;28;20033;-71
2022/03/05 02:55:38;;;;;;;5.05;2.47;;;;;;;;;;5042181;28;20040;-71
2022/03/05 02:58:04;;;;;;;5.13;2.40;;;;;;;;;;5040513;28;20052;-71
2022/03/05 03:00:31;;;;;;;4.75;1.98;;;;;;;;;;5042337;28;20049;-71
2022/03/05 03:02:57;;;;;;;4.55;2.33;;;;;;;;;;5024464;28;20045;-71
2022/03/05 03:05:23;;;;;;;4.65;2.15;;;;;;;;;;5041731;28;20041;-71
2022/03/05 03:07:49;;;;;;;5.43;2.17;;;;;;;;;;5024295;28;20029;-71
2022/03/05 03:10:16;;;;;;;4.72;1.98;;;;;;;;;;5042002;28;20382;-71
2022/03/05 03:12:42;;;;;;;5.78;2.55;;;;;;;;;;5041328;28;20037;-71
2022/03/05 03:15:09;;;;;;;5.03;2.35;;;;;;;;;;5042521;28;20039;-71
2022/03/05 03:17:41;;;;;;;5.18;2.22;;;;;;;;;;5040118;28;20134;-71
2022/03/05 03:20:07;;;;;;;6.05;2.30;;;;;;;;;;5016367;28;20057;-70
2022/03/05 03:22:33;;;;;;;5.57;2.13;;;;;;;;;;5006946;28;20044;-70
2022/03/05 03:24:59;;;;;;;5.50;2.33;;;;;;;;;;5042046;28;20616;-71
2022/03/05 03:27:25;;;;;;;5.43;2.25;;;;;;;;;;5024981;28;20045;-71
2022/03/05 03:29:51;;;;;;;5.50;2.35;;;;;;;;;;5045341;28;20079;-71
2022/03/05 03:32:17;;;;;;;5.40;2.53;;;;;;;;;;5043774;28;20041;-71
2022/03/05 03:34:43;;;;;;;4.88;2.30;;;;;;;;;;5045427;28;20045;-71
2022/03/05 03:37:09;;;;;;;4.72;2.35;;;;;;;;;;5044549;28;20043;-71
2022/03/05 03:39:35;;;;;;;5.72;2.35;;;;;;;;;;5044517;28;20047;-70
2022/03/05 03:42:01;;;;;;;5.50;2.50;;;;;;;;;;5045399;28;20394;-71
2022/03/05 03:44:27;;;;;;;5.07;2.30;;;;;;;;;;5043518;28;20047;-71
2022/03/05 03:46:53;;;;;;;4.63;2.30;;;;;;;;;;5045255;28;20049;-71
2022/03/05 03:49:20;;;;;;;5.70;2.22;;;;;;;;;;5043652;28;20077;-71
2022/03/05 03:51:46;;;;;;;4.63;2.33;;;;;;;;;;5045045;28;20041;-70
2022/03/05 03:54:12;;;;;;;5.10;2.40;;;;;;;;;;5043926;28;20375;-71
2022/03/05 03:56:38;;;;;;;5.78;2.50;;;;;;;;;;5045059;28;20041;-70
2022/03/05 03:59:04;;;;;;;5.13;2.42;;;;;;;;;;5043700;28;20520;-71
2022/03/05 04:01:30;;;;;;;5.65;2.33;;;;;;;;;;5044662;28;20103;-70
2022/03/05 04:03:56;;;;;;;5.07;2.28;;;;;;;;;;5043446;28;20624;-70
2022/03/05 04:06:22;;;;;;;5.25;2.45;;;;;;;;;;5044619;28;20037;-71
2022/03/05 04:08:48;;;;;;;5.60;2.55;;;;;;;;;;5026872;28;20041;-71
2022/03/05 04:11:16;;;;;;;4.82;2.33;;;;;;;;;;5044942;28;20107;-70
2022/03/05 04:13:45;;;;;;;5.63;2.30;;;;;;;;;;5042862;28;20037;-70
2022/03/05 04:16:12;;;;;;;5.00;2.47;;;;;;;;;;5044211;28;20039;-70
2022/03/05 04:18:38;;;;;;;4.65;1.88;;;;;;;;;;5042210;28;20044;-70
2022/03/05 04:21:06;;;;;;;5.00;2.08;;;;;;;;;;5044355;28;20089;-71
2022/03/05 04:23:32;;;;;;;4.82;2.40;;;;;;;;;;5026625;28;20048;-71
2022/03/05 04:25:58;;;;;;;5.40;2.20;;;;;;;;;;5027990;28;20102;-70
2022/03/05 04:28:24;;;;;;;5.45;2.83;;;;;;;;;;5042848;28;20043;-71
2022/03/05 04:30:50;;;;;;;5.60;2.40;;;;;;;;;;5027362;28;20124;-71
2022/03/05 04:33:16;;;;;;;6.40;2.47;;;;;;;;;;5027356;28;20124;-71
2022/03/05 04:35:42;;;;;;;5.63;2.38;;;;;;;;;;5028196;28;20459;-71
2022/03/05 04:38:08;;;;;;;6.53;2.45;;;;;;;;;;5041407;28;20128;-71
2022/03/05 04:40:35;;;;;;;5.47;2.42;;;;;;;;;;5043817;28;20060;-71
2022/03/05 04:43:01;;;;;;;4.97;2.17;;;;;;;;;;5042584;28;20080;-71
2022/03/05 04:45:27;;;;;;;5.30;2.40;;;;;;;;;;5044623;28;20670;-70
2022/03/05 04:47:53;;;;;;;5.18;2.42;;;;;;;;;;5045878;28;20056;-70
2022/03/05 04:50:20;;;;;;;5.63;2.38;;;;;;;;;;5047720;28;20048;-71
2022/03/05 04:52:46;;;;;;;4.65;2.35;;;;;;;;;;5045450;28;20040;-71
2022/03/05 04:55:12;;;;;;;5.90;2.70;;;;;;;;;;5046931;28;20524;-70
2022/03/05 04:57:38;;;;;;;6.43;2.65;;;;;;;;;;5044298;28;20521;-70
2022/03/05 05:00:06;;;;;;;5.32;2.40;;;;;;;;;;5029614;28;20044;-70
2022/03/05 05:02:32;;;;;;;4.78;2.30;;;;;;;;;;5028612;28;20117;-71
2022/03/05 05:04:58;;;;;;;5.95;2.38;;;;;;;;;;5046763;28;20697;-71
2022/03/05 05:07:24;;;;;;;5.22;2.25;;;;;;;;;;5046036;28;20086;-70
2022/03/05 05:09:50;;;;;;;6.22;3.10;;;;;;;;;;5046556;28;20036;-71
2022/03/05 05:12:16;;;;;;;6.00;2.55;;;;;;;;;;5045163;28;20120;-71
2022/03/05 05:14:42;;;;;;;5.38;2.38;;;;;;;;;;5046309;28;20146;-71
2022/03/05 05:17:08;;;;;;;5.05;2.20;;;;;;;;;;5044949;28;20127;-71
2022/03/05 05:19:34;;;;;;;5.00;2.30;;;;;;;;;;5045836;28;20053;-71
2022/03/05 05:22:02;;;;;;;5.88;2.78;;;;;;;;;;5046677;28;20052;-70
2022/03/05 05:24:30;;;;;;;5.20;2.28;;;;;;;;;;5028552;28;20051;-70
2022/03/05 05:26:56;;;;;;;5.20;2.20;;;;;;;;;;5046035;28;20047;-70
2022/03/05 05:29:22;;;;;;;5.35;2.42;;;;;;;;;;5044649;28;20094;-70
2022/03/05 05:31:48;;;;;;;4.70;2.28;;;;;;;;;;5046143;28;20040;-71
2022/03/05 05:34:15;;;;;;;4.70;2.10;;;;;;;;;;5045738;28;20613;-70
2022/03/05 05:36:41;;;;;;;6.75;2.55;;;;;;;;;;5046311;28;20041;-70
2022/03/05 05:39:07;;;;;;;4.75;2.08;;;;;;;;;;5045010;28;20040;-71
2022/03/05 05:41:34;;;;;;;5.85;2.63;;;;;;;;;;5029629;28;20078;-70
2022/03/05 05:44:00;;;;;;;5.90;2.67;;;;;;;;;;5044073;28;20288;-70
2022/03/05 05:46:26;;;;;;;4.80;2.45;;;;;;;;;;5045576;28;20059;-70
2022/03/05 05:48:53;;;;;;;5.43;2.50;;;;;;;;;;5046274;28;20045;-71
2022/03/05 05:51:19;;;;;;;5.22;2.50;;;;;;;;;;5046340;28;20050;-70
2022/03/05 05:53:45;;;;;;;4.88;2.13;;;;;;;;;;5044359;28;20036;-70
2022/03/05 05:56:11;;;;;;;5.35;2.50;;;;;;;;;;5045870;28;20609;-70
2022/03/05 05:58:37;;;;;;;4.35;2.17;;;;;;;;;;5044932;28;20121;-70
2022/03/05 06:01:03;;;;;;;5.80;2.55;;;;;;;;;;5045860;28;20044;-70
2022/03/05 06:03:29;;;;;;;4.75;2.20;;;;;;;;;;5028628;28;20047;-70
2022/03/05 06:05:58;;;;;;;5.85;2.60;;;;;;;;;;5046174;28;20127;-70
2022/03/05 06:08:24;;;;;;;5.53;2.40;;;;;;;;;;5044455;28;20472;-70
2022/03/05 06:10:51;;;;;;;5.88;2.55;;;;;;;;;;5029978;28;20551;-70
2022/03/05 06:13:17;;;;;;;4.93;2.13;;;;;;;;;;5063032;28;20041;-70
2022/03/05 06:15:44;;;;;;;4.45;2.13;;;;;;;;;;5045960;28;20442;-70
2022/03/05 06:18:10;;;;;;;5.13;2.20;;;;;;;;;;5043424;28;20564;-70
2022/03/05 06:20:36;;;;;;;5.30;2.50;;;;;;;;;;5046559;28;20036;-70
2022/03/05 06:23:03;;;;;;;5.50;2.47;;;;;;;;;;5028255;28;20485;-70
2022/03/05 06:25:29;;;;;;;5.57;2.40;;;;;;;;;;5045441;28;20080;-70
2022/03/05 06:27:55;;;;;;;4.75;2.40;;;;;;;;;;5044055;28;20106;-70
2022/03/05 06:30:21;;;;;;;5.57;2.40;;;;;;;;;;5044624;28;20037;-70
2022/03/05 06:32:47;;;;;;;4.00;1.98;;;;;;;;;;5044523;28;20029;-70
2022/03/05 06:35:13;;;;;;;5.57;2.30;;;;;;;;;;5045678;28;20127;-70
2022/03/05 06:37:39;;;;;;;5.40;2.33;;;;;;;;;;5043749;28;20159;-70
2022/03/05 06:40:06;;;;;;;6.10;2.45;;;;;;;;;;5046286;28;20045;-70
2022/03/05 06:42:32;;;;;;;4.82;2.15;;;;;;;;;;5043476;28;20094;-70
2022/03/05 06:44:58;;;;;;;5.75;2.13;;;;;;;;;;5045257;28;20048;-70
2022/03/05 06:47:24;;;;;;;4.85;2.40;;;;;;;;;;5043738;28;20571;-70
2022/03/05 06:49:50;;;;;;;5.82;2.30;;;;;;;;;;5029036;28;20047;-70
2022/03/05 06:52:16;;;;;;;5.43;2.30;;;;;;;;;;5044279;28;20097;-70
2022/03/05 06:54:42;;;;;;;6.32;2.38;;;;;;;;;;5045117;28;20045;-70
2022/03/05 06:57:08;;;;;;;6.28;2.47;;;;;;;;;;5044548;28;20047;-70
2022/03/05 06:59:35;;;;;;;4.88;2.20;;;;;;;;;;5045191;28;20048;-70
2022/03/05 07:02:01;;;;;;;5.75;2.90;;;;;;;;;;5029440;28;20525;-70
2022/03/05 07:04:27;;;;;;;6.18;2.40;;;;;;;;;;5032207;28;20052;-70
2022/03/05 07:06:53;;;;;;;5.22;2.42;;;;;;;;;;5049162;28;20601;-70
2022/03/05 07:09:18;;;;;;;5.50;2.47;;;;;;;;;;5047068;28;20064;-70
2022/03/05 07:11:44;;;;;;;5.20;2.38;;;;;;;;;;5048721;28;20093;-70
2022/03/05 07:14:10;;;;;;;6.85;2.60;;;;;;;;;;5047072;28;20044;-70
2022/03/05 07:16:36;;;;;;;5.03;2.28;;;;;;;;;;5067652;28;20044;-70
2022/03/05 07:19:03;;;;;;;5.63;2.45;;;;;;;;;;5031716;28;20525;-70
2022/03/05 07:21:30;;;;;;;5.50;2.70;;;;;;;;;;5050031;28;20548;-70
2022/03/05 07:23:58;;;;;;;6.57;2.40;;;;;;;;;;5048562;28;20051;-70
2022/03/05 07:26:24;;;;;;;5.10;2.40;;;;;;;;;;5049350;28;20040;-70
2022/03/05 07:28:51;;;;;;;5.28;2.50;;;;;;;;;;5031321;28;20098;-70
2022/03/05 07:31:17;;;;;;;5.22;2.53;;;;;;;;;;5046475;28;20044;-70
2022/03/05 07:33:43;;;;;;;5.22;2.35;;;;;;;;;;5046878;28;20040;-71
2022/03/05 07:36:09;;;;;;;6.22;2.60;;;;;;;;;;5048822;28;20045;-70
2022/03/05 07:38:35;;;;;;;5.72;2.42;;;;;;;;;;5047307;28;20051;-70
2022/03/05 07:41:01;;;;;;;5.63;2.85;;;;;;;;;;5048289;28;20051;-70
2022/03/05 07:43:27;;;;;;;5.60;2.70;;;;;;;;;;5000586;28;20044;-70
2022/03/05 07:45:53;;;;;;;6.03;2.55;;;;;;;;;;5022342;28;20070;-70
2022/03/05 07:48:20;;;;;;;4.78;2.30;;;;;;;;;;5017797;28;20629;-70
2022/03/05 07:50:47;;;;;;;5.00;2.65;;;;;;;;;;5020775;28;20055;-71
2022/03/05 07:53:13;;;;;;;5.25;2.40;;;;;;;;;;5046843;28;20425;-70
2022/03/05 07:55:39;;;;;;;5.30;2.50;;;;;;;;;;5035713;28;20044;-71
2022/03/05 07:58:05;;;;;;;5.75;2.70;;;;;;;;;;5042069;28;20059;-70
2022/03/05 08:00:31;;;;;;;5.53;2.40;;;;;;;;;;5040433;28;20044;-70
2022/03/05 08:02:57;;;;;;;4.95;2.38;;;;;;;;;;5034285;28;20657;-71
2022/03/05 08:05:24;;;;;;;5.00;2.10;;;;;;;;;;5047568;28;20519;-70
2022/03/05 08:07:50;;;;;;;5.97;3.03;;;;;;;;;;5045734;28;20127;-71
2022/03/05 08:10:16;;;;;;;5.78;3.10;;;;;;;;;;5031258;28;20068;-71
2022/03/05 08:12:42;;;;;;;4.82;2.47;;;;;;;;;;5043609;28;20098;-71
2022/03/05 08:15:09;;;;;;;6.63;2.70;;;;;;;;;;5016499;28;20044;-71
2022/03/05 08:17:35;;;;;;;6.82;2.90;;;;;;;;;;5026578;28;20041;-71
2022/03/05 08:20:01;;;;;;;6.43;3.22;;;;;;;;;;5026479;28;20546;-70
2022/03/05 08:22:27;;;;;;;5.88;2.75;;;;;;;;;;5012898;28;20041;-70
2022/03/05 08:24:53;;;;;;;6.30;2.75;;;;;;;;;;5045754;28;20064;-70
2022/03/05 08:27:19;;;;;;;5.78;2.40;;;;;;;;;;5045447;28;20048;-71
2022/03/05 08:29:45;;;;;;;6.18;3.15;;;;;;;;;;5046845;28;20044;-71
2022/03/05 08:32:11;;;;;;;6.82;2.78;;;;;;;;;;5045728;28;20043;-71
2022/03/05 08:34:37;;;;;;;6.80;2.70;;;;;;;;;;5043433;28;20596;-71
2022/03/05 08:37:03;;;;;;;5.90;2.60;;;;;;;;;;5047325;28;20069;-71
2022/03/05 08:39:29;;;;;;;5.35;2.58;;;;;;;;;;5029569;28;20510;-71
2022/03/05 08:41:55;;;;;;;6.05;3.10;;;;;;;;;;5046676;28;20124;-71
2022/03/05 08:44:21;;;;;;;6.97;2.90;;;;;;;;;;5031476;28;20086;-70
2022/03/05 08:46:47;;;;;;;6.18;2.90;;;;;;;;;;5006624;28;20088;-71
2022/03/05 08:49:13;;;;;;;6.05;2.70;;;;;;;;;;5009150;28;20502;-71
2022/03/05 08:51:39;;;;;;;5.30;2.53;;;;;;;;;;5006612;28;20033;-71
2022/03/05 08:54:05;;;;;;;6.22;2.70;;;;;;;;;;5007337;28;20124;-71
2022/03/05 08:56:31;;;;;;;5.72;2.83;;;;;;;;;;5006908;28;20045;-70
2022/03/05 08:58:57;;;;;;;5.55;2.60;;;;;;;;;;5007484;28;20049;-71
2022/03/05 09:01:23;;;;;;;6.22;2.72;;;;;;;;;;5009078;28;20033;-71
2022/03/05 09:03:49;;;;;;;5.55;2.70;;;;;;;;;;5019220;28;20602;-71
2022/03/05 09:06:15;;;;;;;5.53;2.70;;;;;;;;;;4999298;28;20067;-71
2022/03/05 09:08:41;;;;;;;5.50;2.50;;;;;;;;;;5025708;28;20053;-71
2022/03/05 09:11:08;;;;;;;7.18;2.80;;;;;;;;;;5014646;28;20045;-71
2022/03/05 09:13:34;;;;;;;5.30;2.70;;;;;;;;;;5025079;28;20513;-71
2022/03/05 09:16:00;;;;;;;9.52;6.10;;;;;;;;;;5043149;28;20041;-71
2022/03/05 09:18:27;;;;;;;9.38;4.75;;;;;;;;;;5044184;28;20044;-71
2022/03/05 09:20:53;;;;;;;7.75;4.10;;;;;;;;;;5045134;28;20239;-71
2022/03/05 09:23:19;;;;;;;7.78;4.47;;;;;;;;;;5043186;28;20822;-71
2022/03/05 09:25:45;;;;;;;10.43;5.05;;;;;;;;;;5029278;28;20119;-71
2022/03/05 09:28:11;;;;;;;7.93;4.32;;;;;;;;;;5043880;28;20041;-71
2022/03/05 09:30:37;;;;;;;8.65;4.85;;;;;;;;;;4999794;28;20049;-72
2022/03/05 09:33:03;;;;;;;8.55;4.65;;;;;;;;;;5003504;28;20394;-71
2022/03/05 09:35:29;;;;;;;8.95;4.78;;;;;;;;;;5005553;28;20042;-71
2022/03/05 09:37:55;;;;;;;7.85;4.18;;;;;;;;;;5016191;28;20187;-72
2022/03/05 09:40:21;;;;;;;6.97;3.90;;;;;;;;;;5033936;28;20071;-71
2022/03/05 09:42:48;;;;;;;8.18;4.43;;;;;;;;;;5026870;28;20040;-72
2022/03/05 09:45:15;;;;;;;8.55;4.32;;;;;;;;;;5033254;28;20040;-73
2022/03/05 09:47:41;;;;;;;9.80;4.47;;;;;;;;;;5027774;28;20695;-70
2022/03/05 09:50:08;;;;;;;8.70;4.00;;;;;;;;;;5028497;28;20041;-71
2022/03/05 09:52:34;;;;;;;10.48;4.57;;;;;;;;;;5008488;28;20045;-69
2022/03/05 09:55:01;;;;;;;8.50;4.25;;;;;;;;;;4990125;28;20047;-69
2022/03/05 09:57:27;;;;;;;8.35;3.70;;;;;;;;;;4995028;28;20059;-71
2022/03/05 09:59:53;;;;;;;10.38;4.18;;;;;;;;;;5019757;28;20797;-73
2022/03/05 10:02:19;;;;;;;9.38;3.97;;;;;;;;;;5010209;28;20075;-70
2022/03/05 10:04:45;;;;;;;9.48;3.58;;;;;;;;;;5021998;28;20610;-71
2022/03/05 10:07:11;;;;;;;8.90;3.97;;;;;;;;;;5011468;28;20052;-71
2022/03/05 10:09:37;;;;;;;9.93;4.30;;;;;;;;;;5012160;28;20121;-71
2022/03/05 10:12:23;;;;;;;7.72;4.15;;;;;;;;;;4988970;28;20056;-72
2022/03/05 10:15:05;;;;;;;10.18;4.38;;;;;;;;;;5002973;28;20158;-71
2022/03/05 10:17:45;;;;;;;8.20;3.90;;;;;;;;;;5000973;28;20106;-70
2022/03/05 10:20:10;;;;;;;7.90;4.35;;;;;;;;;;5007755;28;20038;-71
2022/03/05 10:22:36;;;;;;;9.88;4.07;;;;;;;;;;5014261;28;20040;-71
2022/03/05 10:25:03;;;;;;;8.40;4.43;;;;;;;;;;5009690;28;20084;-70
2022/03/05 10:27:30;;;;;;;9.50;3.75;;;;;;;;;;4996316;28;20065;-70
2022/03/05 10:29:57;;;;;;;8.57;4.20;;;;;;;;;;5007332;28;20044;-70
2022/03/05 10:32:23;;;;;;;8.65;4.07;;;;;;;;;;5000543;28;20042;-69
2022/03/05 10:34:49;;;;;;;7.43;3.67;;;;;;;;;;4978299;28;20098;-70
2022/03/05 10:37:15;;;;;;;8.23;4.13;;;;;;;;;;5013870;28;20052;-68
2022/03/05 10:39:42;;;;;;;9.00;4.65;;;;;;;;;;5017600;28;20098;-68
2022/03/05 10:42:21;;;;;;;8.40;4.38;;;;;;;;;;5022071;28;20041;-68
2022/03/05 10:45:03;;;;;;;8.13;4.15;;;;;;;;;;5015460;28;20047;-68
2022/03/05 10:47:36;;;;;;;8.02;4.22;;;;;;;;;;5036796;28;20063;-69
2022/03/05 10:50:05;;;;;;;9.88;4.18;;;;;;;;;;5041077;28;20049;-69
2022/03/05 10:52:43;;;;;;;9.32;4.30;;;;;;;;;;5017588;28;20041;-69
2022/03/05 10:55:19;;;;;;;9.63;4.38;;;;;;;;;;5017457;28;21169;-69
2022/03/05 10:58:00;;;;;;;9.45;4.82;;;;;;;;;;5034048;28;20494;-69
2022/03/05 11:00:27;;;;;;;7.75;4.50;;;;;;;;;;5037751;28;20080;-69
2022/03/05 11:02:55;;;;;;;8.93;4.32;;;;;;;;;;5043880;28;20074;-69
2022/03/05 11:05:21;;;;;;;9.00;4.90;;;;;;;;;;5018235;28;20125;-69
2022/03/05 11:07:51;;;;;;;10.05;4.68;;;;;;;;;;5017255;28;20076;-69
2022/03/05 11:10:18;;;;;;;9.52;4.65;;;;;;;;;;5044281;28;20033;-69
2022/03/05 11:12:51;;;;;;;8.68;4.47;;;;;;;;;;5043539;28;20044;-69
2022/03/05 11:15:18;;;;;;;9.45;4.57;;;;;;;;;;5045498;28;20068;-69
2022/03/05 11:17:45;;;;;;;8.75;4.40;;;;;;;;;;5026252;28;20040;-69
2022/03/05 11:20:11;;;;;;;9.55;4.90;;;;;;;;;;5044441;28;20041;-70
2022/03/05 11:22:37;;;;;;;8.98;5.13;;;;;;;;;;5023136;28;20784;-70
2022/03/05 11:25:04;;;;;;;10.77;5.40;;;;;;;;;;5018207;28;20095;-69
2022/03/05 11:27:30;;;;;;;8.18;4.75;;;;;;;;;;5042478;28;20057;-70
2022/03/05 11:30:06;;;;;;;8.45;4.25;;;;;;;;;;5044229;28;20675;-69
2022/03/05 11:32:34;;;;;;;9.52;4.78;;;;;;;;;;5037722;28;20123;-69
2022/03/05 11:35:00;;;;;;;8.93;4.20;;;;;;;;;;5044726;28;20033;-69
2022/03/05 11:37:30;;;;;;;7.57;4.15;;;;;;;;;;5040397;28;20681;-69
2022/03/05 11:39:56;;;;;;;8.88;4.85;;;;;;;;;;5042759;28;20041;-69
2022/03/05 11:42:34;;;;;;;8.30;4.50;;;;;;;;;;5044016;28;20052;-69
2022/03/05 11:45:01;;;;;;;7.85;4.30;;;;;;;;;;5045479;28;20520;-69
2022/03/05 11:47:30;;;;;;;8.25;4.32;;;;;;;;;;5026833;28;20065;-69
2022/03/05 11:49:59;;;;;;;8.30;4.03;;;;;;;;;;5044943;28;20049;-70
2022/03/05 11:52:46;;;;;;;8.32;4.20;;;;;;;;;;5043687;28;20101;-70
2022/03/05 11:55:42;;;;;;;8.55;4.38;;;;;;;;;;5004828;28;20061;-69
2022/03/05 11:58:09;;;;;;;8.98;4.28;;;;;;;;;;5019847;28;20084;-69
2022/03/05 12:00:35;;;;;;;9.80;4.78;;;;;;;;;;5021445;28;20093;-69
2022/03/05 12:03:05;;;;;;;7.07;4.03;;;;;;;;;;5016490;28;20049;-69
2022/03/05 12:05:44;;;;;;;8.60;4.55;;;;;;;;;;5031841;28;20049;-70
2022/03/05 12:08:10;;;;;;;8.93;4.68;;;;;;;;;;5033582;28;20620;-69
2022/03/05 12:10:39;;;;;;;8.23;4.50;;;;;;;;;;5036843;28;20038;-69
2022/03/05 12:13:15;;;;;;;8.27;4.40;;;;;;;;;;5022409;28;20403;-69
2022/03/05 12:15:42;;;;;;;8.95;4.30;;;;;;;;;;5025560;28;20148;-69
2022/03/05 12:18:12;;;;;;;7.30;4.03;;;;;;;;;;5013570;28;20131;-69
2022/03/05 12:20:39;;;;;;;7.32;4.15;;;;;;;;;;5027834;28;20047;-69
2022/03/05 12:23:09;;;;;;;8.38;4.72;;;;;;;;;;5042856;28;20045;-69
2022/03/05 12:25:38;;;;;;;7.40;4.28;;;;;;;;;;5043787;28;20076;-69
2022/03/05 12:28:05;;;;;;;8.65;4.40;;;;;;;;;;5042843;28;20048;-69
2022/03/05 12:30:35;;;;;;;7.63;4.35;;;;;;;;;;5044440;28;20119;-69
2022/03/05 12:33:02;;;;;;;8.25;4.05;;;;;;;;;;5041349;28;20154;-69
2022/03/05 12:35:29;;;;;;;7.80;4.38;;;;;;;;;;5016944;28;20072;-69
2022/03/05 12:37:55;;;;;;;9.23;4.80;;;;;;;;;;5012646;28;20121;-68
2022/03/05 12:40:23;;;;;;;8.23;4.45;;;;;;;;;;5032386;28;20045;-68
2022/03/05 12:42:50;;;;;;;9.18;5.00;;;;;;;;;;5030475;28;20052;-68
2022/03/05 12:45:18;;;;;;;9.60;5.00;;;;;;;;;;5007283;28;20650;-69
2022/03/05 12:47:45;;;;;;;9.02;5.35;;;;;;;;;;5028161;28;20078;-69
2022/03/05 12:50:17;;;;;;;8.45;5.18;;;;;;;;;;5042637;28;20045;-69
2022/03/05 12:52:55;;;;;;;8.25;5.00;;;;;;;;;;5036160;28;20040;-70
2022/03/05 12:55:21;;;;;;;11.13;5.82;;;;;;;;;;5027219;28;20509;-69
2022/03/05 12:57:48;;;;;;;8.60;4.78;;;;;;;;;;5035171;28;20043;-69
2022/03/05 13:00:14;;;;;;;9.85;5.95;;;;;;;;;;5030491;28;20558;-69
2022/03/05 13:02:40;;;;;;;11.93;5.68;;;;;;;;;;5016320;28;20043;-69
2022/03/05 13:05:16;;;;;;;9.27;5.15;;;;;;;;;;5046652;28;20051;-69
2022/03/05 13:07:42;;;;;;;8.38;5.03;;;;;;;;;;5045372;28;20063;-69
2022/03/05 13:10:09;;;;;;;10.88;5.85;;;;;;;;;;5047115;28;20559;-70
2022/03/05 13:12:36;;;;;;;10.15;5.45;;;;;;;;;;5029794;28;20035;-70
2022/03/05 13:15:02;;;;;;;10.40;5.07;;;;;;;;;;5047216;28;20396;-69
2022/03/05 13:17:28;;;;;;;10.32;5.05;;;;;;;;;;5045867;28;20048;-69
2022/03/05 13:20:05;;;;;;;9.80;5.13;;;;;;;;;;5047066;28;20709;-69
2022/03/05 13:22:39;;;;;;;9.10;4.78;;;;;;;;;;5080711;28;20975;-70
2022/03/05 13:25:08;;;;;;;8.60;4.97;;;;;;;;;;5080723;28;20051;-70
2022/03/05 13:27:34;;;;;;;8.88;4.90;;;;;;;;;;5077499;28;20032;-71
2022/03/05 13:30:08;;;;;;;9.13;4.70;;;;;;;;;;5079044;28;20093;-70
2022/03/05 13:32:47;;;;;;;11.68;5.18;;;;;;;;;;5079178;28;20056;-70
2022/03/05 13:35:13;;;;;;;8.93;5.00;;;;;;;;;;5080857;28;20400;-70
2022/03/05 13:37:46;;;;;;;9.93;5.03;;;;;;;;;;5059635;28;20401;-70
2022/03/05 13:40:14;;;;;;;8.57;4.78;;;;;;;;;;5084465;28;20036;-70
2022/03/05 13:42:40;;;;;;;8.05;4.63;;;;;;;;;;5077781;28;20051;-70
2022/03/05 13:45:08;;;;;;;8.27;4.95;;;;;;;;;;5078216;28;20040;-70
2022/03/05 13:47:48;;;;;;;8.40;4.93;;;;;;;;;;5078159;28;20066;-70
2022/03/05 13:50:14;;;;;;;8.88;4.15;;;;;;;;;;5074735;28;20048;-70
2022/03/05 13:52:54;;;;;;;7.97;4.75;;;;;;;;;;5078450;28;20692;-70
2022/03/05 13:55:20;;;;;;;8.95;4.90;;;;;;;;;;5080191;28;20040;-70
2022/03/05 13:57:46;;;;;;;8.73;4.97;;;;;;;;;;5059061;28;20414;-70
2022/03/05 14:00:16;;;;;;;8.50;5.07;;;;;;;;;;5075846;28;20036;-70
2022/03/05 14:02:43;;;;;;;9.95;5.60;;;;;;;;;;5080260;28;20705;-70
2022/03/05 14:05:14;;;;;;;8.82;4.82;;;;;;;;;;5063154;28;20039;-70
2022/03/05 14:07:41;;;;;;;9.30;5.45;;;;;;;;;;5075911;28;20044;-70
2022/03/05 14:10:08;;;;;;;9.50;5.28;;;;;;;;;;5078171;28;20036;-70
2022/03/05 14:12:35;;;;;;;9.15;5.45;;;;;;;;;;5076908;28;20647;-70
2022/03/05 14:15:08;;;;;;;8.30;5.20;;;;;;;;;;5078428;28;20136;-70
2022/03/05 14:17:57;;;;;;;7.40;4.57;;;;;;;;;;5075677;28;20075;-70
2022/03/05 14:20:26;;;;;;;8.35;4.80;;;;;;;;;;5071977;28;20052;-71
2022/03/05 14:22:58;;;;;;;9.32;5.00;;;;;;;;;;5077056;28;20134;-70
2022/03/05 14:25:26;;;;;;;10.10;6.28;;;;;;;;;;5079851;28;20036;-70
2022/03/05 14:27:54;;;;;;;8.90;5.03;;;;;;;;;;5078681;28;20054;-71
2022/03/05 14:30:21;;;;;;;8.82;4.75;;;;;;;;;;5079318;28;20580;-70
2022/03/05 14:32:47;;;;;;;9.25;4.95;;;;;;;;;;5068464;28;20040;-70
2022/03/05 14:35:14;;;;;;;8.65;4.50;;;;;;;;;;5064188;28;20070;-70
2022/03/05 14:37:41;;;;;;;7.78;4.65;;;;;;;;;;5062825;28;20128;-70
2022/03/05 14:40:08;;;;;;;8.70;4.80;;;;;;;;;;5047994;28;20504;-70
2022/03/05 14:42:34;;;;;;;8.43;4.70;;;;;;;;;;5061987;28;20045;-70